sensor_id;sensor_type;location;lat;lon;timestamp;pressure;altitude;pressure_sealevel;temperature;humidity
67803;BME280;72185;51.378;-1.342;2024-02-15T00:01:08;99821.62;;;18.78;38.13
67803;BME280;72185;51.378;-1.342;2024-02-15T00:03:34;99817.19;;;18.84;38.11
67803;BME280;72185;51.378;-1.342;2024-02-15T00:06:00;99822.62;;;18.78;38.09
67803;BME280;72185;51.378;-1.342;2024-02-15T00:08:25;99826.18;;;18.84;38.13
67803;BME280;72185;51.378;-1.342;2024-02-15T00:10:51;99834.49;;;18.83;38.15
67803;BME280;72185;51.378;-1.342;2024-02-15T00:13:16;99840.85;;;18.68;38.11
67803;BME280;72185;51.378;-1.342;2024-02-15T00:15:42;99845.05;;;18.74;38.10
67803;BME280;72185;51.378;-1.342;2024-02-15T00:18:07;99845.24;;;18.65;38.16
67803;BME280;72185;51.378;-1.342;2024-02-15T00:20:33;99847.46;;;18.77;38.06
67803;BME280;72185;51.378;-1.342;2024-02-15T00:22:58;99841.87;;;18.49;38.17
67803;BME280;72185;51.378;-1.342;2024-02-15T00:25:24;99843.10;;;18.55;38.36
67803;BME280;72185;51.378;-1.342;2024-02-15T00:27:49;99839.41;;;18.86;38.28
67803;BME280;72185;51.378;-1.342;2024-02-15T00:30:15;99833.03;;;18.67;38.21
67803;BME280;72185;51.378;-1.342;2024-02-15T00:32:40;99833.23;;;18.60;38.25
67803;BME280;72185;51.378;-1.342;2024-02-15T00:35:06;99826.34;;;18.71;38.14
67803;BME280;72185;51.378;-1.342;2024-02-15T00:37:31;99827.28;;;18.68;38.10
67803;BME280;72185;51.378;-1.342;2024-02-15T00:39:57;99824.98;;;18.64;38.06
67803;BME280;72185;51.378;-1.342;2024-02-15T00:42:22;99815.71;;;18.66;38.00
67803;BME280;72185;51.378;-1.342;2024-02-15T00:44:48;99805.27;;;18.53;38.23
67803;BME280;72185;51.378;-1.342;2024-02-15T00:47:14;99811.96;;;18.61;38.12
67803;BME280;72185;51.378;-1.342;2024-02-15T00:49:39;99811.32;;;18.78;38.23
67803;BME280;72185;51.378;-1.342;2024-02-15T00:52:05;99823.86;;;18.73;38.09
67803;BME280;72185;51.378;-1.342;2024-02-15T00:54:30;99822.99;;;18.64;38.08
67803;BME280;72185;51.378;-1.342;2024-02-15T00:56:56;99824.03;;;18.62;38.08
67803;BME280;72185;51.378;-1.342;2024-02-15T00:59:21;99822.38;;;18.69;38.04
67803;BME280;72185;51.378;-1.342;2024-02-15T01:01:47;99813.35;;;18.75;37.78
67803;BME280;72185;51.378;-1.342;2024-02-15T01:04:12;99805.68;;;18.46;38.20
67803;BME280;72185;51.378;-1.342;2024-02-15T01:06:38;99806.81;;;18.60;37.98
67803;BME280;72185;51.378;-1.342;2024-02-15T01:09:03;99802.48;;;18.51;38.20
67803;BME280;72185;51.378;-1.342;2024-02-15T01:11:29;99790.63;;;18.63;38.02
67803;BME280;72185;51.378;-1.342;2024-02-15T01:13:55;99789.71;;;18.51;38.10
67803;BME280;72185;51.378;-1.342;2024-02-15T01:16:20;99787.18;;;18.52;38.09
67803;BME280;72185;51.378;-1.342;2024-02-15T01:18:45;99787.88;;;18.68;37.81
67803;BME280;72185;51.378;-1.342;2024-02-15T01:21:11;99789.38;;;18.68;37.87
67803;BME280;72185;51.378;-1.342;2024-02-15T01:23:35;99790.46;;;18.63;37.90
67803;BME280;72185;51.378;-1.342;2024-02-15T01:26:01;99791.66;;;18.63;37.83
67803;BME280;72185;51.378;-1.342;2024-02-15T01:28:26;99789.23;;;18.62;37.88
67803;BME280;72185;51.378;-1.342;2024-02-15T01:30:52;99786.96;;;18.49;38.05
67803;BME280;72185;51.378;-1.342;2024-02-15T01:33:18;99782.48;;;18.58;38.00
67803;BME280;72185;51.378;-1.342;2024-02-15T01:35:43;99777.93;;;18.51;38.11
67803;BME280;72185;51.378;-1.342;2024-02-15T01:38:09;99777.87;;;18.49;38.06
67803;BME280;72185;51.378;-1.342;2024-02-15T01:40:34;99775.18;;;18.52;38.10
67803;BME280;72185;51.378;-1.342;2024-02-15T01:43:00;99779.13;;;18.51;38.02
67803;BME280;72185;51.378;-1.342;2024-02-15T01:45:25;99773.48;;;18.68;37.86
67803;BME280;72185;51.378;-1.342;2024-02-15T01:47:51;99766.94;;;18.38;38.18
67803;BME280;72185;51.378;-1.342;2024-02-15T01:50:17;99765.53;;;18.40;38.18
67803;BME280;72185;51.378;-1.342;2024-02-15T01:52:44;99769.52;;;18.56;37.99
67803;BME280;72185;51.378;-1.342;2024-02-15T01:55:08;99766.84;;;18.45;38.13
67803;BME280;72185;51.378;-1.342;2024-02-15T01:57:34;99764.67;;;18.40;37.89
67803;BME280;72185;51.378;-1.342;2024-02-15T01:59:59;99760.67;;;18.35;38.13
67803;BME280;72185;51.378;-1.342;2024-02-15T02:02:25;99767.48;;;18.56;37.90
67803;BME280;72185;51.378;-1.342;2024-02-15T02:04:50;99763.69;;;18.40;38.07
67803;BME280;72185;51.378;-1.342;2024-02-15T02:07:16;99760.27;;;18.58;38.02
67803;BME280;72185;51.378;-1.342;2024-02-15T02:09:41;99758.97;;;18.36;38.19
67803;BME280;72185;51.378;-1.342;2024-02-15T02:12:07;99759.53;;;18.56;37.95
67803;BME280;72185;51.378;-1.342;2024-02-15T02:14:32;99754.62;;;18.48;37.90
67803;BME280;72185;51.378;-1.342;2024-02-15T02:17:10;99757.65;;;18.36;38.10
67803;BME280;72185;51.378;-1.342;2024-02-15T02:19:23;99760.01;;;18.46;38.07
67803;BME280;72185;51.378;-1.342;2024-02-15T02:21:49;99761.13;;;18.45;38.05
67803;BME280;72185;51.378;-1.342;2024-02-15T02:24:20;99751.40;;;18.41;38.08
67803;BME280;72185;51.378;-1.342;2024-02-15T02:26:40;99738.84;;;18.32;38.25
67803;BME280;72185;51.378;-1.342;2024-02-15T02:29:05;99734.95;;;18.42;38.03
67803;BME280;72185;51.378;-1.342;2024-02-15T02:31:33;99730.18;;;18.49;38.05
67803;BME280;72185;51.378;-1.342;2024-02-15T02:33:56;99728.67;;;18.21;38.30
67803;BME280;72185;51.378;-1.342;2024-02-15T02:36:22;99721.92;;;18.31;38.18
67803;BME280;72185;51.378;-1.342;2024-02-15T02:38:47;99719.85;;;18.41;38.08
67803;BME280;72185;51.378;-1.342;2024-02-15T02:41:13;99718.64;;;18.10;38.44
67803;BME280;72185;51.378;-1.342;2024-02-15T02:43:39;99713.37;;;18.28;38.23
67803;BME280;72185;51.378;-1.342;2024-02-15T02:46:04;99713.42;;;18.33;38.24
67803;BME280;72185;51.378;-1.342;2024-02-15T02:48:30;99708.97;;;18.39;38.16
67803;BME280;72185;51.378;-1.342;2024-02-15T02:50:56;99700.75;;;18.41;38.08
67803;BME280;72185;51.378;-1.342;2024-02-15T02:53:21;99700.83;;;18.14;38.38
67803;BME280;72185;51.378;-1.342;2024-02-15T02:55:46;99702.65;;;18.23;38.33
67803;BME280;72185;51.378;-1.342;2024-02-15T02:58:12;99702.47;;;18.34;38.17
67803;BME280;72185;51.378;-1.342;2024-02-15T03:00:37;99705.97;;;18.20;38.29
67803;BME280;72185;51.378;-1.342;2024-02-15T03:03:03;99703.81;;;18.14;38.33
67803;BME280;72185;51.378;-1.342;2024-02-15T03:05:29;99698.78;;;18.34;38.01
67803;BME280;72185;51.378;-1.342;2024-02-15T03:07:54;99701.93;;;18.19;38.28
67803;BME280;72185;51.378;-1.342;2024-02-15T03:10:20;99703.37;;;18.32;38.28
67803;BME280;72185;51.378;-1.342;2024-02-15T03:12:45;99704.64;;;18.48;38.29
67803;BME280;72185;51.378;-1.342;2024-02-15T03:15:11;99707.09;;;18.40;37.91
67803;BME280;72185;51.378;-1.342;2024-02-15T03:17:38;99703.56;;;18.59;38.06
67803;BME280;72185;51.378;-1.342;2024-02-15T03:20:02;99707.26;;;18.33;38.20
67803;BME280;72185;51.378;-1.342;2024-02-15T03:22:28;99707.28;;;18.12;38.29
67803;BME280;72185;51.378;-1.342;2024-02-15T03:24:53;99711.40;;;18.41;38.03
67803;BME280;72185;51.378;-1.342;2024-02-15T03:27:19;99701.70;;;18.29;38.15
67803;BME280;72185;51.378;-1.342;2024-02-15T03:29:44;99691.68;;;18.09;38.33
67803;BME280;72185;51.378;-1.342;2024-02-15T03:32:10;99687.03;;;18.41;37.90
67803;BME280;72185;51.378;-1.342;2024-02-15T03:34:35;99692.19;;;18.22;38.17
67803;BME280;72185;51.378;-1.342;2024-02-15T03:37:01;99690.35;;;18.50;38.16
67803;BME280;72185;51.378;-1.342;2024-02-15T03:39:26;99690.92;;;18.32;38.10
67803;BME280;72185;51.378;-1.342;2024-02-15T03:41:52;99693.29;;;18.27;38.09
67803;BME280;72185;51.378;-1.342;2024-02-15T03:44:18;99688.72;;;18.67;37.88
67803;BME280;72185;51.378;-1.342;2024-02-15T03:46:43;99683.88;;;18.30;38.17
67803;BME280;72185;51.378;-1.342;2024-02-15T03:49:08;99679.49;;;18.36;38.06
67803;BME280;72185;51.378;-1.342;2024-02-15T03:51:34;99680.62;;;18.18;38.23
67803;BME280;72185;51.378;-1.342;2024-02-15T03:53:59;99683.66;;;18.46;37.91
67803;BME280;72185;51.378;-1.342;2024-02-15T03:56:25;99682.04;;;18.36;37.99
67803;BME280;72185;51.378;-1.342;2024-02-15T03:58:51;99674.87;;;18.03;38.29
67803;BME280;72185;51.378;-1.342;2024-02-15T04:01:16;99673.60;;;18.15;38.27
67803;BME280;72185;51.378;-1.342;2024-02-15T04:03:42;99667.73;;;18.30;38.06
67803;BME280;72185;51.378;-1.342;2024-02-15T04:06:07;99669.76;;;18.50;38.11
67803;BME280;72185;51.378;-1.342;2024-02-15T04:08:33;99671.01;;;18.04;38.43
67803;BME280;72185;51.378;-1.342;2024-02-15T04:10:58;99666.85;;;18.13;38.11
67803;BME280;72185;51.378;-1.342;2024-02-15T04:13:24;99660.46;;;18.06;38.32
67803;BME280;72185;51.378;-1.342;2024-02-15T04:15:49;99663.48;;;18.66;38.20
67803;BME280;72185;51.378;-1.342;2024-02-15T04:18:15;99667.81;;;18.29;37.95
67803;BME280;72185;51.378;-1.342;2024-02-15T04:20:40;99667.79;;;18.14;38.15
67803;BME280;72185;51.378;-1.342;2024-02-15T04:23:06;99667.07;;;18.60;37.97
67803;BME280;72185;51.378;-1.342;2024-02-15T04:25:31;99668.02;;;18.39;37.89
67803;BME280;72185;51.378;-1.342;2024-02-15T04:27:57;99669.49;;;18.52;37.95
67803;BME280;72185;51.378;-1.342;2024-02-15T04:30:22;99668.77;;;18.32;37.97
67803;BME280;72185;51.378;-1.342;2024-02-15T04:32:48;99664.18;;;18.47;37.94
67803;BME280;72185;51.378;-1.342;2024-02-15T04:35:14;99667.38;;;18.50;38.00
67803;BME280;72185;51.378;-1.342;2024-02-15T04:37:39;99667.34;;;18.32;37.95
67803;BME280;72185;51.378;-1.342;2024-02-15T04:40:06;99669.63;;;18.60;38.22
67803;BME280;72185;51.378;-1.342;2024-02-15T04:42:30;99668.16;;;18.30;38.08
67803;BME280;72185;51.378;-1.342;2024-02-15T04:44:55;99669.09;;;18.07;38.23
67803;BME280;72185;51.378;-1.342;2024-02-15T04:47:21;99672.75;;;18.30;37.96
67803;BME280;72185;51.378;-1.342;2024-02-15T04:49:47;99672.92;;;18.32;37.88
67803;BME280;72185;51.378;-1.342;2024-02-15T04:52:12;99671.44;;;18.11;38.24
67803;BME280;72185;51.378;-1.342;2024-02-15T04:54:38;99668.37;;;18.62;37.81
67803;BME280;72185;51.378;-1.342;2024-02-15T04:57:03;99673.95;;;18.22;38.15
67803;BME280;72185;51.378;-1.342;2024-02-15T04:59:29;99670.38;;;18.36;37.85
67803;BME280;72185;51.378;-1.342;2024-02-15T05:01:55;99675.92;;;18.29;37.93
67803;BME280;72185;51.378;-1.342;2024-02-15T05:04:20;99679.22;;;18.30;37.90
67803;BME280;72185;51.378;-1.342;2024-02-15T05:06:45;99678.05;;;18.41;38.13
67803;BME280;72185;51.378;-1.342;2024-02-15T05:09:11;99683.87;;;18.39;37.81
67803;BME280;72185;51.378;-1.342;2024-02-15T05:11:37;99681.01;;;18.43;37.77
67803;BME280;72185;51.378;-1.342;2024-02-15T05:14:02;99683.23;;;18.39;37.84
67803;BME280;72185;51.378;-1.342;2024-02-15T05:16:27;99687.08;;;18.25;37.81
67803;BME280;72185;51.378;-1.342;2024-02-15T05:18:53;99684.65;;;18.50;37.89
67803;BME280;72185;51.378;-1.342;2024-02-15T05:21:19;99688.56;;;18.39;38.03
67803;BME280;72185;51.378;-1.342;2024-02-15T05:23:44;99681.51;;;18.66;37.82
67803;BME280;72185;51.378;-1.342;2024-02-15T05:26:11;99678.51;;;18.35;37.87
67803;BME280;72185;51.378;-1.342;2024-02-15T05:28:35;99679.59;;;18.06;38.18
67803;BME280;72185;51.378;-1.342;2024-02-15T05:31:09;99681.24;;;18.20;37.96
67803;BME280;72185;51.378;-1.342;2024-02-15T05:33:26;99673.43;;;18.07;38.16
67803;BME280;72185;51.378;-1.342;2024-02-15T05:35:52;99670.39;;;18.36;37.75
67803;BME280;72185;51.378;-1.342;2024-02-15T05:38:17;99670.03;;;18.43;37.75
67803;BME280;72185;51.378;-1.342;2024-02-15T05:40:43;99671.16;;;18.55;37.73
67803;BME280;72185;51.378;-1.342;2024-02-15T05:43:09;99666.96;;;18.51;38.00
67803;BME280;72185;51.378;-1.342;2024-02-15T05:45:34;99668.38;;;18.57;38.22
67803;BME280;72185;51.378;-1.342;2024-02-15T05:48:00;99661.16;;;18.62;38.16
67803;BME280;72185;51.378;-1.342;2024-02-15T05:50:25;99661.09;;;18.93;38.22
67803;BME280;72185;51.378;-1.342;2024-02-15T05:52:51;99660.84;;;18.72;38.23
67803;BME280;72185;51.378;-1.342;2024-02-15T05:55:16;99657.66;;;18.62;38.28
67803;BME280;72185;51.378;-1.342;2024-02-15T05:57:42;99653.80;;;18.65;38.37
67803;BME280;72185;51.378;-1.342;2024-02-15T06:00:08;99652.40;;;18.68;38.43
67803;BME280;72185;51.378;-1.342;2024-02-15T06:02:33;99654.27;;;18.69;38.48
67803;BME280;72185;51.378;-1.342;2024-02-15T06:04:58;99656.75;;;18.81;38.33
67803;BME280;72185;51.378;-1.342;2024-02-15T06:07:24;99648.84;;;18.84;38.29
67803;BME280;72185;51.378;-1.342;2024-02-15T06:09:49;99646.32;;;18.87;38.22
67803;BME280;72185;51.378;-1.342;2024-02-15T06:12:15;99646.80;;;18.85;38.19
67803;BME280;72185;51.378;-1.342;2024-02-15T06:14:41;99644.17;;;18.87;38.28
67803;BME280;72185;51.378;-1.342;2024-02-15T06:17:06;99645.41;;;18.86;38.22
67803;BME280;72185;51.378;-1.342;2024-02-15T06:19:32;99642.44;;;18.86;38.24
67803;BME280;72185;51.378;-1.342;2024-02-15T06:21:57;99645.39;;;18.71;38.50
67803;BME280;72185;51.378;-1.342;2024-02-15T06:24:23;99646.86;;;18.83;38.44
67803;BME280;72185;51.378;-1.342;2024-02-15T06:26:48;99649.46;;;18.97;38.31
67803;BME280;72185;51.378;-1.342;2024-02-15T06:29:14;99647.45;;;18.82;38.05
67803;BME280;72185;51.378;-1.342;2024-02-15T06:31:39;99646.05;;;19.03;38.29
67803;BME280;72185;51.378;-1.342;2024-02-15T06:34:05;99643.53;;;18.91;38.03
67803;BME280;72185;51.378;-1.342;2024-02-15T06:36:30;99644.52;;;18.92;38.03
67803;BME280;72185;51.378;-1.342;2024-02-15T06:38:56;99645.04;;;19.10;37.92
67803;BME280;72185;51.378;-1.342;2024-02-15T06:41:22;99640.51;;;19.14;38.12
67803;BME280;72185;51.378;-1.342;2024-02-15T06:43:47;99646.01;;;19.20;38.04
67803;BME280;72185;51.378;-1.342;2024-02-15T06:46:13;99647.48;;;19.06;38.18
67803;BME280;72185;51.378;-1.342;2024-02-15T06:48:41;99647.10;;;19.06;38.19
67803;BME280;72185;51.378;-1.342;2024-02-15T06:51:04;99645.70;;;19.01;38.29
67803;BME280;72185;51.378;-1.342;2024-02-15T06:53:29;99644.57;;;18.95;38.42
67803;BME280;72185;51.378;-1.342;2024-02-15T06:55:55;99641.57;;;18.82;38.66
67803;BME280;72185;51.378;-1.342;2024-02-15T06:58:20;99637.70;;;18.85;38.60
67803;BME280;72185;51.378;-1.342;2024-02-15T07:00:48;99636.34;;;18.92;38.47
67803;BME280;72185;51.378;-1.342;2024-02-15T07:03:12;99637.36;;;18.95;38.37
67803;BME280;72185;51.378;-1.342;2024-02-15T07:05:37;99632.48;;;18.91;38.43
67803;BME280;72185;51.378;-1.342;2024-02-15T07:08:03;99628.43;;;18.88;38.52
67803;BME280;72185;51.378;-1.342;2024-02-15T07:10:28;99625.52;;;18.85;38.42
67803;BME280;72185;51.378;-1.342;2024-02-15T07:12:54;99622.26;;;18.54;38.56
67803;BME280;72185;51.378;-1.342;2024-02-15T07:15:19;99626.91;;;18.82;38.59
67803;BME280;72185;51.378;-1.342;2024-02-15T07:17:45;99636.11;;;18.88;38.67
67803;BME280;72185;51.378;-1.342;2024-02-15T07:20:11;99633.77;;;18.91;38.50
67803;BME280;72185;51.378;-1.342;2024-02-15T07:22:36;99632.84;;;18.85;38.56
67803;BME280;72185;51.378;-1.342;2024-02-15T07:25:01;99625.96;;;18.89;38.53
67803;BME280;72185;51.378;-1.342;2024-02-15T07:27:27;99626.74;;;18.91;38.86
67803;BME280;72185;51.378;-1.342;2024-02-15T07:29:52;99623.76;;;18.99;38.56
67803;BME280;72185;51.378;-1.342;2024-02-15T07:32:18;99617.32;;;18.90;38.64
67803;BME280;72185;51.378;-1.342;2024-02-15T07:34:43;99623.33;;;18.85;38.61
67803;BME280;72185;51.378;-1.342;2024-02-15T07:37:09;99628.17;;;18.96;38.48
67803;BME280;72185;51.378;-1.342;2024-02-15T07:39:35;99634.07;;;18.96;38.43
67803;BME280;72185;51.378;-1.342;2024-02-15T07:42:00;99630.66;;;18.92;38.52
67803;BME280;72185;51.378;-1.342;2024-02-15T07:44:26;99632.45;;;18.98;38.47
67803;BME280;72185;51.378;-1.342;2024-02-15T07:46:51;99634.16;;;18.94;38.68
67803;BME280;72185;51.378;-1.342;2024-02-15T07:49:17;99628.03;;;18.93;38.59
67803;BME280;72185;51.378;-1.342;2024-02-15T07:51:42;99619.21;;;18.87;38.57
67803;BME280;72185;51.378;-1.342;2024-02-15T07:54:08;99623.58;;;18.92;38.63
67803;BME280;72185;51.378;-1.342;2024-02-15T07:56:33;99624.34;;;18.94;38.59
67803;BME280;72185;51.378;-1.342;2024-02-15T07:58:59;99619.99;;;18.85;38.74
67803;BME280;72185;51.378;-1.342;2024-02-15T08:01:24;99619.43;;;18.91;38.57
67803;BME280;72185;51.378;-1.342;2024-02-15T08:03:50;99610.06;;;18.88;38.66
67803;BME280;72185;51.378;-1.342;2024-02-15T08:06:16;99604.77;;;19.05;38.59
67803;BME280;72185;51.378;-1.342;2024-02-15T08:08:42;99605.44;;;18.86;38.81
67803;BME280;72185;51.378;-1.342;2024-02-15T08:11:06;99608.67;;;18.85;38.69
67803;BME280;72185;51.378;-1.342;2024-02-15T08:13:32;99609.19;;;18.91;38.63
67803;BME280;72185;51.378;-1.342;2024-02-15T08:15:57;99607.75;;;18.80;38.58
67803;BME280;72185;51.378;-1.342;2024-02-15T08:18:23;99603.34;;;18.98;38.75
67803;BME280;72185;51.378;-1.342;2024-02-15T08:20:49;99601.20;;;18.93;38.67
67803;BME280;72185;51.378;-1.342;2024-02-15T08:23:14;99600.16;;;19.10;38.47
67803;BME280;72185;51.378;-1.342;2024-02-15T08:25:40;99596.16;;;18.87;38.76
67803;BME280;72185;51.378;-1.342;2024-02-15T08:28:05;99587.28;;;18.83;38.54
67803;BME280;72185;51.378;-1.342;2024-02-15T08:30:31;99583.58;;;19.01;38.63
67803;BME280;72185;51.378;-1.342;2024-02-15T08:32:56;99591.70;;;19.04;38.47
67803;BME280;72185;51.378;-1.342;2024-02-15T08:35:22;99584.45;;;19.01;38.65
67803;BME280;72185;51.378;-1.342;2024-02-15T08:37:47;99580.45;;;18.84;38.83
67803;BME280;72185;51.378;-1.342;2024-02-15T08:40:13;99585.72;;;18.89;38.74
67803;BME280;72185;51.378;-1.342;2024-02-15T08:42:39;99582.17;;;19.06;38.53
67803;BME280;72185;51.378;-1.342;2024-02-15T08:45:05;99587.49;;;18.82;38.81
67803;BME280;72185;51.378;-1.342;2024-02-15T08:47:30;99586.35;;;19.00;38.57
67803;BME280;72185;51.378;-1.342;2024-02-15T08:49:55;99589.41;;;18.83;38.46
67803;BME280;72185;51.378;-1.342;2024-02-15T08:52:21;99588.25;;;19.09;38.42
67803;BME280;72185;51.378;-1.342;2024-02-15T08:54:46;99588.84;;;19.14;38.43
67803;BME280;72185;51.378;-1.342;2024-02-15T08:57:12;99587.25;;;18.84;38.56
67803;BME280;72185;51.378;-1.342;2024-02-15T08:59:39;99582.20;;;19.13;38.50
67803;BME280;72185;51.378;-1.342;2024-02-15T09:02:03;99582.57;;;19.17;38.42
67803;BME280;72185;51.378;-1.342;2024-02-15T09:04:28;99578.75;;;19.14;38.46
67803;BME280;72185;51.378;-1.342;2024-02-15T09:06:54;99575.06;;;19.12;38.56
67803;BME280;72185;51.378;-1.342;2024-02-15T09:09:19;99569.51;;;18.86;38.52
67803;BME280;72185;51.378;-1.342;2024-02-15T09:11:45;99559.42;;;19.17;38.46
67803;BME280;72185;51.378;-1.342;2024-02-15T09:14:10;99555.23;;;19.12;38.47
67803;BME280;72185;51.378;-1.342;2024-02-15T09:16:36;99555.79;;;19.17;38.50
67803;BME280;72185;51.378;-1.342;2024-02-15T09:19:01;99557.99;;;19.23;38.43
67803;BME280;72185;51.378;-1.342;2024-02-15T09:21:27;99556.40;;;19.15;38.63
67803;BME280;72185;51.378;-1.342;2024-02-15T09:23:53;99555.09;;;19.14;38.60
67803;BME280;72185;51.378;-1.342;2024-02-15T09:26:18;99549.90;;;19.20;38.57
67803;BME280;72185;51.378;-1.342;2024-02-15T09:28:44;99543.33;;;19.20;38.66
67803;BME280;72185;51.378;-1.342;2024-02-15T09:31:12;99539.34;;;19.23;38.66
67803;BME280;72185;51.378;-1.342;2024-02-15T09:33:35;99539.61;;;19.24;38.73
67803;BME280;72185;51.378;-1.342;2024-02-15T09:36:00;99539.04;;;19.25;38.83
67803;BME280;72185;51.378;-1.342;2024-02-15T09:38:26;99541.98;;;19.20;38.82
67803;BME280;72185;51.378;-1.342;2024-02-15T09:40:51;99547.50;;;19.08;38.76
67803;BME280;72185;51.378;-1.342;2024-02-15T09:43:17;99542.20;;;19.21;38.93
67803;BME280;72185;51.378;-1.342;2024-02-15T09:45:43;99532.55;;;19.23;39.06
67803;BME280;72185;51.378;-1.342;2024-02-15T09:48:10;99522.21;;;19.22;39.10
67803;BME280;72185;51.378;-1.342;2024-02-15T09:50:35;99521.09;;;19.17;39.18
67803;BME280;72185;51.378;-1.342;2024-02-15T09:52:59;99520.95;;;19.15;39.19
67803;BME280;72185;51.378;-1.342;2024-02-15T09:55:25;99520.69;;;19.19;39.13
67803;BME280;72185;51.378;-1.342;2024-02-15T09:57:51;99510.17;;;19.18;39.13
67803;BME280;72185;51.378;-1.342;2024-02-15T10:00:16;99514.40;;;19.21;39.10
67803;BME280;72185;51.378;-1.342;2024-02-15T10:02:43;99519.78;;;19.24;39.08
67803;BME280;72185;51.378;-1.342;2024-02-15T10:05:08;99517.57;;;19.21;39.16
67803;BME280;72185;51.378;-1.342;2024-02-15T10:07:32;99519.59;;;19.24;39.13
67803;BME280;72185;51.378;-1.342;2024-02-15T10:14:50;99507.70;;;19.33;38.98
67803;BME280;72185;51.378;-1.342;2024-02-15T10:17:15;99503.00;;;19.25;39.04
67803;BME280;72185;51.378;-1.342;2024-02-15T10:19:40;99500.63;;;19.26;39.08
67803;BME280;72185;51.378;-1.342;2024-02-15T10:22:07;99485.86;;;19.31;38.99
67803;BME280;72185;51.378;-1.342;2024-02-15T10:24:31;99489.77;;;19.34;38.94
67803;BME280;72185;51.378;-1.342;2024-02-15T10:27:01;99483.57;;;19.20;38.76
67803;BME280;72185;51.378;-1.342;2024-02-15T10:29:22;99479.37;;;19.44;38.77
67803;BME280;72185;51.378;-1.342;2024-02-15T10:31:53;99478.65;;;19.25;38.99
67803;BME280;72185;51.378;-1.342;2024-02-15T10:34:14;99484.58;;;19.38;38.76
67803;BME280;72185;51.378;-1.342;2024-02-15T10:36:39;99477.95;;;19.07;38.84
67803;BME280;72185;51.378;-1.342;2024-02-15T10:39:11;99473.08;;;19.06;38.81
67803;BME280;72185;51.378;-1.342;2024-02-15T10:41:30;99464.71;;;19.25;38.80
67803;BME280;72185;51.378;-1.342;2024-02-15T10:43:56;99460.58;;;19.23;38.76
67803;BME280;72185;51.378;-1.342;2024-02-15T10:46:21;99466.43;;;19.26;38.70
67803;BME280;72185;51.378;-1.342;2024-02-15T10:48:47;99461.55;;;19.19;38.83
67803;BME280;72185;51.378;-1.342;2024-02-15T10:51:13;99461.42;;;19.21;38.78
67803;BME280;72185;51.378;-1.342;2024-02-15T10:53:42;99455.38;;;19.27;38.71
67803;BME280;72185;51.378;-1.342;2024-02-15T10:56:08;99452.69;;;19.21;38.81
67803;BME280;72185;51.378;-1.342;2024-02-15T10:58:32;99450.84;;;19.32;38.63
67803;BME280;72185;51.378;-1.342;2024-02-15T11:00:54;99444.86;;;19.28;38.71
67803;BME280;72185;51.378;-1.342;2024-02-15T11:03:24;99441.94;;;19.26;38.81
67803;BME280;72185;51.378;-1.342;2024-02-15T11:05:45;99441.37;;;19.30;38.73
67803;BME280;72185;51.378;-1.342;2024-02-15T11:08:12;99447.28;;;19.35;38.72
67803;BME280;72185;51.378;-1.342;2024-02-15T11:10:37;99443.67;;;19.29;38.93
67803;BME280;72185;51.378;-1.342;2024-02-15T11:13:02;99444.91;;;19.09;39.01
67803;BME280;72185;51.378;-1.342;2024-02-15T11:17:53;99447.07;;;19.08;39.15
67803;BME280;72185;51.378;-1.342;2024-02-15T11:25:09;99444.30;;;19.40;39.19
67803;BME280;72185;51.378;-1.342;2024-02-15T11:27:35;99441.52;;;19.42;39.12
67803;BME280;72185;51.378;-1.342;2024-02-15T11:30:01;99439.87;;;19.50;38.99
67803;BME280;72185;51.378;-1.342;2024-02-15T11:32:34;99436.84;;;19.50;39.04
67803;BME280;72185;51.378;-1.342;2024-02-15T11:39:43;99430.92;;;19.63;38.83
67803;BME280;72185;51.378;-1.342;2024-02-15T11:44:34;99414.70;;;19.53;39.01
67803;BME280;72185;51.378;-1.342;2024-02-15T11:47:00;99409.84;;;19.49;39.10
67803;BME280;72185;51.378;-1.342;2024-02-15T11:49:25;99408.40;;;19.30;39.07
67803;BME280;72185;51.378;-1.342;2024-02-15T11:51:50;99409.66;;;19.60;38.96
67803;BME280;72185;51.378;-1.342;2024-02-15T11:54:20;99410.30;;;19.50;38.77
67803;BME280;72185;51.378;-1.342;2024-02-15T11:56:50;99409.46;;;19.61;38.97
67803;BME280;72185;51.378;-1.342;2024-02-15T11:59:07;99408.28;;;19.15;38.94
67803;BME280;72185;51.378;-1.342;2024-02-15T12:01:33;99404.95;;;19.65;38.89
67803;BME280;72185;51.378;-1.342;2024-02-15T12:03:58;99401.18;;;19.66;38.85
67803;BME280;72185;51.378;-1.342;2024-02-15T12:06:23;99406.04;;;19.61;38.99
67803;BME280;72185;51.378;-1.342;2024-02-15T12:08:50;99398.30;;;19.67;38.97
67803;BME280;72185;51.378;-1.342;2024-02-15T12:11:14;99392.36;;;19.48;38.90
67803;BME280;72185;51.378;-1.342;2024-02-15T12:13:40;99388.25;;;19.71;38.90
67803;BME280;72185;51.378;-1.342;2024-02-15T12:16:05;99388.52;;;19.60;39.03
67803;BME280;72185;51.378;-1.342;2024-02-15T12:18:31;99390.32;;;19.47;38.90
67803;BME280;72185;51.378;-1.342;2024-02-15T12:20:57;99384.61;;;19.46;38.92
67803;BME280;72185;51.378;-1.342;2024-02-15T12:23:22;99386.46;;;19.78;38.83
67803;BME280;72185;51.378;-1.342;2024-02-15T12:25:51;99383.24;;;19.49;38.83
67803;BME280;72185;51.378;-1.342;2024-02-15T12:28:14;99387.98;;;19.78;38.80
67803;BME280;72185;51.378;-1.342;2024-02-15T12:30:38;99388.17;;;19.77;38.78
67803;BME280;72185;51.378;-1.342;2024-02-15T12:33:09;99379.59;;;19.56;38.73
67803;BME280;72185;51.378;-1.342;2024-02-15T12:35:30;99375.44;;;19.95;38.57
67803;BME280;72185;51.378;-1.342;2024-02-15T12:38:01;99378.33;;;19.75;38.57
67803;BME280;72185;51.378;-1.342;2024-02-15T12:40:21;99372.67;;;19.44;38.61
67803;BME280;72185;51.378;-1.342;2024-02-15T12:42:46;99377.14;;;19.63;38.68
67803;BME280;72185;51.378;-1.342;2024-02-15T12:45:16;99382.72;;;19.75;38.87
67803;BME280;72185;51.378;-1.342;2024-02-15T12:47:37;99383.61;;;19.46;38.93
67803;BME280;72185;51.378;-1.342;2024-02-15T12:52:33;99375.23;;;19.50;38.83
67803;BME280;72185;51.378;-1.342;2024-02-15T12:57:19;99365.45;;;19.45;38.92
67803;BME280;72185;51.378;-1.342;2024-02-15T12:59:44;99359.12;;;19.67;38.91
67803;BME280;72185;51.378;-1.342;2024-02-15T13:02:10;99353.62;;;19.66;38.91
67803;BME280;72185;51.378;-1.342;2024-02-15T13:04:36;99354.40;;;19.70;38.87